sensor_id;sensor_type;location;lat;lon;timestamp;P1;durP1;ratioP1;P2;durP2;ratioP2
22015;SDS011;11172;51.698;-0.292;2022-10-16T00:00:56;530.97;;;481.65;;
22015;SDS011;11172;51.698;-0.292;2022-10-16T00:03:22;525.10;;;476.50;;
22015;SDS011;11172;51.698;-0.292;2022-10-16T00:05:48;527.70;;;478.25;;
22015;SDS011;11172;51.698;-0.292;2022-10-16T00:08:14;524.47;;;475.17;;
22015;SDS011;11172;51.698;-0.292;2022-10-16T00:10:40;545.35;;;494.33;;
22015;SDS011;11172;51.698;-0.292;2022-10-16T00:13:06;521.80;;;472.25;;
22015;SDS011;11172;51.698;-0.292;2022-10-16T00:15:33;524.78;;;474.88;;
22015;SDS011;11172;51.698;-0.292;2022-10-16T00:18:01;532.50;;;481.58;;
22015;SDS011;11172;51.698;-0.292;2022-10-16T00:20:27;516.33;;;466.92;;
22015;SDS011;11172;51.698;-0.292;2022-10-16T00:22:53;531.53;;;481.00;;
22015;SDS011;11172;51.698;-0.292;2022-10-16T00:25:19;530.25;;;478.30;;
22015;SDS011;11172;51.698;-0.292;2022-10-16T00:27:45;525.92;;;475.60;;
22015;SDS011;11172;51.698;-0.292;2022-10-16T00:30:11;527.45;;;476.50;;
22015;SDS011;11172;51.698;-0.292;2022-10-16T00:32:37;528.53;;;478.83;;
22015;SDS011;11172;51.698;-0.292;2022-10-16T00:35:03;521.28;;;471.23;;
22015;SDS011;11172;51.698;-0.292;2022-10-16T00:37:29;517.72;;;467.92;;
22015;SDS011;11172;51.698;-0.292;2022-10-16T00:39:55;514.47;;;465.10;;
22015;SDS011;11172;51.698;-0.292;2022-10-16T00:42:21;529.10;;;478.75;;
22015;SDS011;11172;51.698;-0.292;2022-10-16T00:44:49;525.13;;;476.00;;
22015;SDS011;11172;51.698;-0.292;2022-10-16T00:47:59;529.17;;;478.73;;
22015;SDS011;11172;51.698;-0.292;2022-10-16T00:50:08;545.47;;;492.38;;
22015;SDS011;11172;51.698;-0.292;2022-10-16T00:52:35;539.72;;;485.50;;
22015;SDS011;11172;51.698;-0.292;2022-10-16T00:55:02;525.90;;;475.67;;
22015;SDS011;11172;51.698;-0.292;2022-10-16T00:57:28;526.80;;;476.75;;
22015;SDS011;11172;51.698;-0.292;2022-10-16T00:59:54;539.88;;;489.42;;
22015;SDS011;11172;51.698;-0.292;2022-10-16T01:02:21;524.60;;;474.60;;
22015;SDS011;11172;51.698;-0.292;2022-10-16T01:04:48;526.72;;;476.58;;
22015;SDS011;11172;51.698;-0.292;2022-10-16T01:12:12;531.83;;;481.70;;
22015;SDS011;11172;51.698;-0.292;2022-10-16T01:14:43;536.97;;;486.63;;
22015;SDS011;11172;51.698;-0.292;2022-10-16T01:17:13;536.58;;;484.48;;
22015;SDS011;11172;51.698;-0.292;2022-10-16T01:22:27;547.25;;;492.90;;
22015;SDS011;11172;51.698;-0.292;2022-10-16T01:24:55;543.05;;;489.98;;
22015;SDS011;11172;51.698;-0.292;2022-10-16T01:27:25;538.65;;;486.63;;
22015;SDS011;11172;51.698;-0.292;2022-10-16T01:35:12;536.45;;;482.40;;
22015;SDS011;11172;51.698;-0.292;2022-10-16T01:40:21;546.90;;;491.65;;
22015;SDS011;11172;51.698;-0.292;2022-10-16T01:42:51;534.38;;;481.48;;
22015;SDS011;11172;51.698;-0.292;2022-10-16T01:47:53;555.28;;;501.73;;
22015;SDS011;11172;51.698;-0.292;2022-10-16T01:50:20;542.88;;;489.17;;
22015;SDS011;11172;51.698;-0.292;2022-10-16T01:52:47;537.85;;;485.75;;
22015;SDS011;11172;51.698;-0.292;2022-10-16T01:55:16;546.15;;;493.25;;
22015;SDS011;11172;51.698;-0.292;2022-10-16T01:57:44;544.58;;;491.83;;
22015;SDS011;11172;51.698;-0.292;2022-10-16T02:00:12;547.50;;;494.13;;
22015;SDS011;11172;51.698;-0.292;2022-10-16T02:02:44;549.60;;;496.63;;
22015;SDS011;11172;51.698;-0.292;2022-10-16T02:05:33;557.15;;;503.10;;
22015;SDS011;11172;51.698;-0.292;2022-10-16T02:07:57;563.22;;;508.77;;
22015;SDS011;11172;51.698;-0.292;2022-10-16T02:10:24;552.90;;;500.83;;
22015;SDS011;11172;51.698;-0.292;2022-10-16T02:12:52;550.53;;;497.70;;
22015;SDS011;11172;51.698;-0.292;2022-10-16T02:15:21;547.58;;;495.35;;
22015;SDS011;11172;51.698;-0.292;2022-10-16T02:17:47;541.85;;;489.45;;
22015;SDS011;11172;51.698;-0.292;2022-10-16T02:20:12;556.17;;;503.75;;
22015;SDS011;11172;51.698;-0.292;2022-10-16T02:22:39;545.47;;;492.75;;
22015;SDS011;11172;51.698;-0.292;2022-10-16T02:25:10;550.33;;;495.67;;
22015;SDS011;11172;51.698;-0.292;2022-10-16T02:27:43;545.42;;;492.65;;
22015;SDS011;11172;51.698;-0.292;2022-10-16T02:30:15;539.72;;;485.52;;
22015;SDS011;11172;51.698;-0.292;2022-10-16T02:32:44;541.50;;;487.23;;
22015;SDS011;11172;51.698;-0.292;2022-10-16T02:35:10;554.97;;;500.73;;
22015;SDS011;11172;51.698;-0.292;2022-10-16T02:37:37;542.72;;;489.90;;
22015;SDS011;11172;51.698;-0.292;2022-10-16T02:40:04;544.28;;;490.25;;
22015;SDS011;11172;51.698;-0.292;2022-10-16T02:42:38;535.95;;;483.35;;
22015;SDS011;11172;51.698;-0.292;2022-10-16T02:45:06;546.55;;;491.73;;
22015;SDS011;11172;51.698;-0.292;2022-10-16T02:47:32;549.25;;;495.42;;
22015;SDS011;11172;51.698;-0.292;2022-10-16T02:49:58;535.13;;;480.50;;
22015;SDS011;11172;51.698;-0.292;2022-10-16T02:52:24;542.92;;;488.73;;
22015;SDS011;11172;51.698;-0.292;2022-10-16T02:54:50;546.92;;;493.08;;
22015;SDS011;11172;51.698;-0.292;2022-10-16T02:57:17;547.13;;;492.67;;
22015;SDS011;11172;51.698;-0.292;2022-10-16T02:59:44;536.53;;;482.42;;
22015;SDS011;11172;51.698;-0.292;2022-10-16T03:02:10;554.88;;;499.92;;
22015;SDS011;11172;51.698;-0.292;2022-10-16T03:04:36;534.22;;;479.70;;
22015;SDS011;11172;51.698;-0.292;2022-10-16T03:07:02;543.97;;;488.85;;
22015;SDS011;11172;51.698;-0.292;2022-10-16T03:09:28;553.22;;;498.58;;
22015;SDS011;11172;51.698;-0.292;2022-10-16T03:11:54;553.38;;;498.25;;
22015;SDS011;11172;51.698;-0.292;2022-10-16T03:14:20;539.42;;;484.10;;
22015;SDS011;11172;51.698;-0.292;2022-10-16T03:16:46;544.55;;;488.33;;
22015;SDS011;11172;51.698;-0.292;2022-10-16T03:19:12;544.70;;;488.77;;
22015;SDS011;11172;51.698;-0.292;2022-10-16T03:21:38;546.50;;;491.05;;
22015;SDS011;11172;51.698;-0.292;2022-10-16T03:24:04;538.97;;;483.90;;
22015;SDS011;11172;51.698;-0.292;2022-10-16T03:26:30;540.67;;;485.55;;
22015;SDS011;11172;51.698;-0.292;2022-10-16T03:28:56;534.35;;;479.95;;
22015;SDS011;11172;51.698;-0.292;2022-10-16T03:31:22;548.90;;;492.48;;
22015;SDS011;11172;51.698;-0.292;2022-10-16T03:33:48;535.13;;;480.13;;
22015;SDS011;11172;51.698;-0.292;2022-10-16T03:36:14;527.47;;;472.63;;
22015;SDS011;11172;51.698;-0.292;2022-10-16T03:38:40;534.45;;;479.10;;
22015;SDS011;11172;51.698;-0.292;2022-10-16T03:41:06;540.35;;;483.63;;
22015;SDS011;11172;51.698;-0.292;2022-10-16T03:43:32;524.40;;;470.35;;
22015;SDS011;11172;51.698;-0.292;2022-10-16T03:45:58;533.60;;;478.10;;
22015;SDS011;11172;51.698;-0.292;2022-10-16T03:48:24;528.13;;;472.67;;
22015;SDS011;11172;51.698;-0.292;2022-10-16T03:50:50;521.40;;;466.55;;
22015;SDS011;11172;51.698;-0.292;2022-10-16T03:53:17;525.80;;;467.30;;
22015;SDS011;11172;51.698;-0.292;2022-10-16T03:55:43;539.90;;;482.77;;
22015;SDS011;11172;51.698;-0.292;2022-10-16T03:58:10;547.53;;;489.80;;
22015;SDS011;11172;51.698;-0.292;2022-10-16T04:00:39;543.33;;;485.30;;
22015;SDS011;11172;51.698;-0.292;2022-10-16T04:03:05;529.17;;;467.38;;
22015;SDS011;11172;51.698;-0.292;2022-10-16T04:05:31;534.53;;;475.42;;
22015;SDS011;11172;51.698;-0.292;2022-10-16T04:07:57;529.08;;;468.20;;
22015;SDS011;11172;51.698;-0.292;2022-10-16T04:10:23;533.15;;;470.02;;
22015;SDS011;11172;51.698;-0.292;2022-10-16T04:12:49;532.10;;;471.35;;
22015;SDS011;11172;51.698;-0.292;2022-10-16T04:15:15;534.08;;;475.05;;
22015;SDS011;11172;51.698;-0.292;2022-10-16T04:17:42;521.50;;;458.73;;
22015;SDS011;11172;51.698;-0.292;2022-10-16T04:20:08;537.97;;;465.63;;
22015;SDS011;11172;51.698;-0.292;2022-10-16T04:22:34;527.75;;;461.98;;
22015;SDS011;11172;51.698;-0.292;2022-10-16T04:25:00;531.97;;;467.52;;
22015;SDS011;11172;51.698;-0.292;2022-10-16T04:27:26;530.17;;;469.25;;
22015;SDS011;11172;51.698;-0.292;2022-10-16T04:29:52;545.45;;;474.88;;
22015;SDS011;11172;51.698;-0.292;2022-10-16T04:32:18;532.90;;;472.77;;
22015;SDS011;11172;51.698;-0.292;2022-10-16T04:34:43;528.40;;;462.98;;
22015;SDS011;11172;51.698;-0.292;2022-10-16T04:37:09;524.97;;;455.30;;
22015;SDS011;11172;51.698;-0.292;2022-10-16T04:39:35;524.92;;;451.60;;
22015;SDS011;11172;51.698;-0.292;2022-10-16T04:42:01;539.10;;;473.77;;
22015;SDS011;11172;51.698;-0.292;2022-10-16T04:44:27;539.00;;;467.38;;
22015;SDS011;11172;51.698;-0.292;2022-10-16T04:46:53;533.65;;;464.88;;
22015;SDS011;11172;51.698;-0.292;2022-10-16T04:49:19;522.05;;;452.40;;
22015;SDS011;11172;51.698;-0.292;2022-10-16T04:51:45;522.58;;;446.67;;
22015;SDS011;11172;51.698;-0.292;2022-10-16T04:54:11;535.42;;;460.10;;
22015;SDS011;11172;51.698;-0.292;2022-10-16T04:56:37;528.95;;;446.98;;
22015;SDS011;11172;51.698;-0.292;2022-10-16T04:59:11;537.28;;;455.50;;
22015;SDS011;11172;51.698;-0.292;2022-10-16T05:01:37;540.25;;;461.48;;
22015;SDS011;11172;51.698;-0.292;2022-10-16T05:04:03;533.70;;;449.60;;
22015;SDS011;11172;51.698;-0.292;2022-10-16T05:06:29;540.78;;;464.42;;
22015;SDS011;11172;51.698;-0.292;2022-10-16T05:08:55;546.95;;;459.48;;
22015;SDS011;11172;51.698;-0.292;2022-10-16T05:11:21;533.58;;;451.60;;
22015;SDS011;11172;51.698;-0.292;2022-10-16T05:13:47;539.22;;;454.95;;
22015;SDS011;11172;51.698;-0.292;2022-10-16T05:16:13;540.67;;;447.33;;
22015;SDS011;11172;51.698;-0.292;2022-10-16T05:18:39;538.88;;;439.77;;
22015;SDS011;11172;51.698;-0.292;2022-10-16T05:21:05;534.17;;;441.67;;
22015;SDS011;11172;51.698;-0.292;2022-10-16T05:23:31;538.30;;;441.25;;
22015;SDS011;11172;51.698;-0.292;2022-10-16T05:25:58;543.88;;;451.42;;
22015;SDS011;11172;51.698;-0.292;2022-10-16T05:28:25;539.38;;;446.58;;
22015;SDS011;11172;51.698;-0.292;2022-10-16T05:30:51;537.08;;;445.55;;
22015;SDS011;11172;51.698;-0.292;2022-10-16T05:33:21;535.95;;;437.08;;
22015;SDS011;11172;51.698;-0.292;2022-10-16T05:35:47;541.13;;;434.52;;
22015;SDS011;11172;51.698;-0.292;2022-10-16T05:38:14;546.97;;;438.35;;
22015;SDS011;11172;51.698;-0.292;2022-10-16T05:40:40;539.15;;;437.55;;
22015;SDS011;11172;51.698;-0.292;2022-10-16T05:43:06;545.17;;;449.23;;
22015;SDS011;11172;51.698;-0.292;2022-10-16T05:45:33;550.50;;;440.05;;
22015;SDS011;11172;51.698;-0.292;2022-10-16T05:47:59;556.00;;;444.23;;
22015;SDS011;11172;51.698;-0.292;2022-10-16T05:50:25;561.05;;;440.27;;
22015;SDS011;11172;51.698;-0.292;2022-10-16T05:52:51;563.60;;;441.77;;
22015;SDS011;11172;51.698;-0.292;2022-10-16T05:55:17;560.13;;;440.00;;
22015;SDS011;11172;51.698;-0.292;2022-10-16T05:57:43;563.22;;;441.85;;
22015;SDS011;11172;51.698;-0.292;2022-10-16T06:00:09;571.35;;;433.88;;
22015;SDS011;11172;51.698;-0.292;2022-10-16T06:02:35;569.40;;;435.05;;
22015;SDS011;11172;51.698;-0.292;2022-10-16T06:05:01;565.63;;;435.80;;
22015;SDS011;11172;51.698;-0.292;2022-10-16T06:07:27;571.22;;;437.42;;
22015;SDS011;11172;51.698;-0.292;2022-10-16T06:09:54;565.95;;;427.45;;
22015;SDS011;11172;51.698;-0.292;2022-10-16T06:12:20;570.95;;;434.10;;
22015;SDS011;11172;51.698;-0.292;2022-10-16T06:14:46;568.50;;;434.40;;
22015;SDS011;11172;51.698;-0.292;2022-10-16T06:17:12;570.38;;;430.63;;
22015;SDS011;11172;51.698;-0.292;2022-10-16T06:19:39;589.35;;;451.85;;
22015;SDS011;11172;51.698;-0.292;2022-10-16T06:22:05;583.45;;;435.23;;
22015;SDS011;11172;51.698;-0.292;2022-10-16T06:24:31;577.88;;;434.00;;
22015;SDS011;11172;51.698;-0.292;2022-10-16T06:26:57;588.38;;;446.38;;
22015;SDS011;11172;51.698;-0.292;2022-10-16T06:29:23;588.15;;;437.70;;
22015;SDS011;11172;51.698;-0.292;2022-10-16T06:31:49;579.10;;;428.73;;
22015;SDS011;11172;51.698;-0.292;2022-10-16T06:34:15;573.40;;;417.60;;
22015;SDS011;11172;51.698;-0.292;2022-10-16T06:36:41;575.00;;;422.35;;
22015;SDS011;11172;51.698;-0.292;2022-10-16T06:39:08;582.60;;;430.40;;
22015;SDS011;11172;51.698;-0.292;2022-10-16T06:41:34;580.30;;;435.88;;
22015;SDS011;11172;51.698;-0.292;2022-10-16T06:44:00;576.10;;;419.02;;
22015;SDS011;11172;51.698;-0.292;2022-10-16T06:46:27;581.72;;;430.42;;
22015;SDS011;11172;51.698;-0.292;2022-10-16T06:48:54;578.67;;;423.73;;
22015;SDS011;11172;51.698;-0.292;2022-10-16T06:51:21;576.53;;;419.30;;
22015;SDS011;11172;51.698;-0.292;2022-10-16T06:53:54;581.30;;;430.80;;
22015;SDS011;11172;51.698;-0.292;2022-10-16T06:56:24;633.65;;;434.52;;
22015;SDS011;11172;51.698;-0.292;2022-10-16T06:58:50;588.80;;;430.27;;
22015;SDS011;11172;51.698;-0.292;2022-10-16T07:01:17;585.50;;;432.55;;
22015;SDS011;11172;51.698;-0.292;2022-10-16T07:03:44;591.25;;;441.70;;
22015;SDS011;11172;51.698;-0.292;2022-10-16T07:08:40;601.15;;;443.45;;
22015;SDS011;11172;51.698;-0.292;2022-10-16T07:11:07;588.50;;;439.25;;
22015;SDS011;11172;51.698;-0.292;2022-10-16T07:13:34;588.20;;;438.52;;
22015;SDS011;11172;51.698;-0.292;2022-10-16T07:16:07;588.17;;;442.90;;
22015;SDS011;11172;51.698;-0.292;2022-10-16T07:18:33;592.65;;;443.15;;
22015;SDS011;11172;51.698;-0.292;2022-10-16T07:21:03;598.60;;;447.85;;
22015;SDS011;11172;51.698;-0.292;2022-10-16T07:23:29;591.50;;;446.35;;
22015;SDS011;11172;51.698;-0.292;2022-10-16T07:25:55;597.75;;;456.85;;
22015;SDS011;11172;51.698;-0.292;2022-10-16T07:28:21;598.75;;;463.77;;
22015;SDS011;11172;51.698;-0.292;2022-10-16T07:30:47;600.70;;;458.98;;
22015;SDS011;11172;51.698;-0.292;2022-10-16T07:33:14;590.45;;;458.10;;
22015;SDS011;11172;51.698;-0.292;2022-10-16T07:35:53;598.58;;;462.02;;
22015;SDS011;11172;51.698;-0.292;2022-10-16T07:38:19;606.05;;;453.50;;
22015;SDS011;11172;51.698;-0.292;2022-10-16T07:40:45;587.25;;;452.42;;
22015;SDS011;11172;51.698;-0.292;2022-10-16T07:43:12;598.25;;;469.05;;
22015;SDS011;11172;51.698;-0.292;2022-10-16T07:45:45;591.25;;;474.63;;
22015;SDS011;11172;51.698;-0.292;2022-10-16T07:48:12;599.58;;;505.30;;
22015;SDS011;11172;51.698;-0.292;2022-10-16T07:50:38;609.40;;;537.50;;
22015;SDS011;11172;51.698;-0.292;2022-10-16T07:53:04;656.40;;;590.60;;
22015;SDS011;11172;51.698;-0.292;2022-10-16T07:55:31;676.88;;;611.33;;
22015;SDS011;11172;51.698;-0.292;2022-10-16T07:57:57;704.67;;;639.60;;
22015;SDS011;11172;51.698;-0.292;2022-10-16T08:00:23;723.03;;;658.88;;
22015;SDS011;11172;51.698;-0.292;2022-10-16T08:02:49;719.33;;;656.92;;
22015;SDS011;11172;51.698;-0.292;2022-10-16T08:05:15;726.70;;;665.13;;
22015;SDS011;11172;51.698;-0.292;2022-10-16T08:07:41;697.97;;;639.97;;
22015;SDS011;11172;51.698;-0.292;2022-10-16T08:10:11;679.00;;;623.75;;
22015;SDS011;11172;51.698;-0.292;2022-10-16T08:12:42;650.97;;;598.92;;
22015;SDS011;11172;51.698;-0.292;2022-10-16T08:15:08;617.75;;;568.28;;
22015;SDS011;11172;51.698;-0.292;2022-10-16T08:17:34;574.78;;;529.15;;
22015;SDS011;11172;51.698;-0.292;2022-10-16T08:20:00;549.85;;;505.42;;
22015;SDS011;11172;51.698;-0.292;2022-10-16T08:22:26;527.35;;;485.05;;
22015;SDS011;11172;51.698;-0.292;2022-10-16T08:24:52;485.63;;;446.95;;
22015;SDS011;11172;51.698;-0.292;2022-10-16T08:27:18;453.05;;;416.48;;
22015;SDS011;11172;51.698;-0.292;2022-10-16T08:29:44;413.42;;;379.48;;
22015;SDS011;11172;51.698;-0.292;2022-10-16T08:32:10;376.63;;;345.77;;
22015;SDS011;11172;51.698;-0.292;2022-10-16T08:34:36;345.98;;;317.65;;
22015;SDS011;11172;51.698;-0.292;2022-10-16T08:37:02;310.25;;;285.00;;
22015;SDS011;11172;51.698;-0.292;2022-10-16T08:39:28;290.00;;;265.33;;
22015;SDS011;11172;51.698;-0.292;2022-10-16T08:49:47;221.65;;;202.63;;
22015;SDS011;11172;51.698;-0.292;2022-10-16T08:54:43;193.73;;;176.52;;
22015;SDS011;11172;51.698;-0.292;2022-10-16T08:57:21;186.20;;;170.02;;
22015;SDS011;11172;51.698;-0.292;2022-10-16T08:59:48;172.73;;;157.90;;
22015;SDS011;11172;51.698;-0.292;2022-10-16T09:04:51;150.05;;;136.98;;
22015;SDS011;11172;51.698;-0.292;2022-10-16T09:07:32;143.90;;;131.15;;
22015;SDS011;11172;51.698;-0.292;2022-10-16T09:15:28;121.75;;;110.57;;
22015;SDS011;11172;51.698;-0.292;2022-10-16T09:17:57;118.00;;;107.13;;
22015;SDS011;11172;51.698;-0.292;2022-10-16T09:22:56;103.25;;;93.93;;
22015;SDS011;11172;51.698;-0.292;2022-10-16T09:25:25;94.78;;;86.45;;
22015;SDS011;11172;51.698;-0.292;2022-10-16T09:27:52;86.63;;;78.65;;
22015;SDS011;11172;51.698;-0.292;2022-10-16T09:30:19;85.78;;;77.65;;
22015;SDS011;11172;51.698;-0.292;2022-10-16T09:32:47;79.70;;;72.38;;
22015;SDS011;11172;51.698;-0.292;2022-10-16T09:35:15;75.00;;;68.10;;
22015;SDS011;11172;51.698;-0.292;2022-10-16T09:37:42;72.53;;;65.97;;
22015;SDS011;11172;51.698;-0.292;2022-10-16T09:40:23;68.68;;;62.35;;
22015;SDS011;11172;51.698;-0.292;2022-10-16T09:42:49;64.38;;;58.08;;
22015;SDS011;11172;51.698;-0.292;2022-10-16T09:45:20;61.17;;;55.78;;
22015;SDS011;11172;51.698;-0.292;2022-10-16T09:47:46;54.92;;;50.20;;
22015;SDS011;11172;51.698;-0.292;2022-10-16T09:50:33;58.10;;;52.40;;
22015;SDS011;11172;51.698;-0.292;2022-10-16T09:53:11;53.72;;;48.78;;
22015;SDS011;11172;51.698;-0.292;2022-10-16T09:55:47;50.83;;;46.40;;
22015;SDS011;11172;51.698;-0.292;2022-10-16T09:58:13;48.72;;;44.00;;
22015;SDS011;11172;51.698;-0.292;2022-10-16T10:00:39;45.03;;;40.65;;
22015;SDS011;11172;51.698;-0.292;2022-10-16T10:03:10;46.03;;;41.55;;
22015;SDS011;11172;51.698;-0.292;2022-10-16T10:05:37;41.95;;;37.95;;
22015;SDS011;11172;51.698;-0.292;2022-10-16T10:08:05;38.42;;;34.95;;
22015;SDS011;11172;51.698;-0.292;2022-10-16T10:10:34;40.85;;;36.90;;
22015;SDS011;11172;51.698;-0.292;2022-10-16T10:13:02;38.72;;;35.08;;
22015;SDS011;11172;51.698;-0.292;2022-10-16T10:15:30;34.17;;;31.13;;
22015;SDS011;11172;51.698;-0.292;2022-10-16T10:17:58;32.25;;;29.05;;
22015;SDS011;11172;51.698;-0.292;2022-10-16T10:22:52;32.45;;;29.02;;
22015;SDS011;11172;51.698;-0.292;2022-10-16T10:30:38;28.05;;;25.25;;
22015;SDS011;11172;51.698;-0.292;2022-10-16T10:45:52;24.90;;;22.60;;
22015;SDS011;11172;51.698;-0.292;2022-10-16T10:48:23;27.13;;;24.50;;
22015;SDS011;11172;51.698;-0.292;2022-10-16T10:50:52;28.90;;;22.58;;
22015;SDS011;11172;51.698;-0.292;2022-10-16T10:53:32;23.80;;;21.35;;
22015;SDS011;11172;51.698;-0.292;2022-10-16T11:01:10;6.20;;;3.27;;
22015;SDS011;11172;51.698;-0.292;2022-10-16T11:06:18;34.83;;;31.17;;
22015;SDS011;11172;51.698;-0.292;2022-10-16T11:09:32;8.63;;;5.10;;
22015;SDS011;11172;51.698;-0.292;2022-10-16T11:12:02;42.92;;;38.58;;
22015;SDS011;11172;51.698;-0.292;2022-10-16T11:14:28;44.90;;;40.65;;
22015;SDS011;11172;51.698;-0.292;2022-10-16T11:17:02;43.28;;;39.15;;
22015;SDS011;11172;51.698;-0.292;2022-10-16T11:19:49;46.97;;;42.58;;
22015;SDS011;11172;51.698;-0.292;2022-10-16T11:24:59;52.72;;;47.45;;
22015;SDS011;11172;51.698;-0.292;2022-10-16T11:28:10;51.85;;;46.88;;
22015;SDS011;11172;51.698;-0.292;2022-10-16T11:30:27;57.08;;;51.83;;
22015;SDS011;11172;51.698;-0.292;2022-10-16T11:35:25;60.80;;;54.45;;
22015;SDS011;11172;51.698;-0.292;2022-10-16T11:37:54;63.47;;;56.03;;
22015;SDS011;11172;51.698;-0.292;2022-10-16T11:40:25;65.30;;;58.95;;
22015;SDS011;11172;51.698;-0.292;2022-10-16T11:42:57;69.40;;;62.47;;
22015;SDS011;11172;51.698;-0.292;2022-10-16T11:45:36;71.00;;;64.03;;
22015;SDS011;11172;51.698;-0.292;2022-10-16T11:48:14;74.45;;;66.90;;
22015;SDS011;11172;51.698;-0.292;2022-10-16T11:55:37;71.55;;;64.47;;
22015;SDS011;11172;51.698;-0.292;2022-10-16T11:58:05;76.07;;;68.53;;
22015;SDS011;11172;51.698;-0.292;2022-10-16T12:00:39;78.25;;;70.47;;
22015;SDS011;11172;51.698;-0.292;2022-10-16T12:08:26;81.40;;;74.25;;
22015;SDS011;11172;51.698;-0.292;2022-10-16T12:10:53;83.72;;;74.88;;
22015;SDS011;11172;51.698;-0.292;2022-10-16T12:18:37;91.57;;;82.72;;
22015;SDS011;11172;51.698;-0.292;2022-10-16T12:21:03;93.75;;;84.93;;
22015;SDS011;11172;51.698;-0.292;2022-10-16T12:23:31;93.80;;;84.93;;
22015;SDS011;11172;51.698;-0.292;2022-10-16T12:25:59;90.55;;;81.63;;
22015;SDS011;11172;51.698;-0.292;2022-10-16T12:28:28;96.70;;;87.68;;
22015;SDS011;11172;51.698;-0.292;2022-10-16T12:30:58;91.63;;;82.50;;
22015;SDS011;11172;51.698;-0.292;2022-10-16T12:33:29;98.35;;;89.28;;
22015;SDS011;11172;51.698;-0.292;2022-10-16T12:35:55;99.43;;;89.75;;
22015;SDS011;11172;51.698;-0.292;2022-10-16T12:38:25;102.18;;;92.28;;
22015;SDS011;11172;51.698;-0.292;2022-10-16T12:41:00;102.18;;;92.10;;
22015;SDS011;11172;51.698;-0.292;2022-10-16T12:43:27;103.55;;;93.32;;
22015;SDS011;11172;51.698;-0.292;2022-10-16T12:46:54;100.90;;;91.43;;
22015;SDS011;11172;51.698;-0.292;2022-10-16T12:48:49;119.82;;;108.50;;
22015;SDS011;11172;51.698;-0.292;2022-10-16T12:51:25;105.30;;;95.45;;
22015;SDS011;11172;51.698;-0.292;2022-10-16T13:05:33;108.55;;;98.43;;
22015;SDS011;11172;51.698;-0.292;2022-10-16T13:16:46;116.97;;;106.38;;
22015;SDS011;11172;51.698;-0.292;2022-10-16T13:22:08;121.47;;;110.40;;
22015;SDS011;11172;51.698;-0.292;2022-10-16T13:24:46;117.95;;;107.22;;
22015;SDS011;11172;51.698;-0.292;2022-10-16T13:30:25;132.98;;;120.50;;
22015;SDS011;11172;51.698;-0.292;2022-10-16T13:35:56;134.05;;;122.15;;
22015;SDS011;11172;51.698;-0.292;2022-10-16T13:38:30;128.30;;;116.60;;
22015;SDS011;11172;51.698;-0.292;2022-10-16T13:41:18;135.10;;;121.95;;
22015;SDS011;11172;51.698;-0.292;2022-10-16T13:43:50;126.82;;;114.72;;
22015;SDS011;11172;51.698;-0.292;2022-10-16T13:46:29;123.40;;;112.13;;
22015;SDS011;11172;51.698;-0.292;2022-10-16T13:49:33;129.32;;;117.05;;
22015;SDS011;11172;51.698;-0.292;2022-10-16T13:51:55;134.75;;;122.68;;
22015;SDS011;11172;51.698;-0.292;2022-10-16T13:54:31;133.75;;;120.57;;
22015;SDS011;11172;51.698;-0.292;2022-10-16T13:57:06;130.55;;;118.18;;
22015;SDS011;11172;51.698;-0.292;2022-10-16T13:59:33;123.00;;;111.13;;
22015;SDS011;11172;51.698;-0.292;2022-10-16T14:02:05;128.10;;;114.28;;
22015;SDS011;11172;51.698;-0.292;2022-10-16T14:04:32;132.45;;;120.07;;
22015;SDS011;11172;51.698;-0.292;2022-10-16T14:06:58;130.98;;;118.82;;
22015;SDS011;11172;51.698;-0.292;2022-10-16T14:09:28;133.10;;;121.32;;
22015;SDS011;11172;51.698;-0.292;2022-10-16T14:12:10;136.88;;;124.50;;
22015;SDS011;11172;51.698;-0.292;2022-10-16T14:14:46;140.02;;;126.90;;
22015;SDS011;11172;51.698;-0.292;2022-10-16T14:17:20;115.68;;;105.25;;
22015;SDS011;11172;51.698;-0.292;2022-10-16T14:28:04;214.55;;;158.82;;
22015;SDS011;11172;51.698;-0.292;2022-10-16T14:39:59;140.35;;;126.93;;
22015;SDS011;11172;51.698;-0.292;2022-10-16T14:42:27;116.32;;;106.28;;
22015;SDS011;11172;51.698;-0.292;2022-10-16T14:44:54;137.05;;;124.78;;
22015;SDS011;11172;51.698;-0.292;2022-10-16T14:47:23;136.95;;;124.03;;
22015;SDS011;11172;51.698;-0.292;2022-10-16T14:49:51;137.18;;;123.65;;
22015;SDS011;11172;51.698;-0.292;2022-10-16T14:52:20;134.40;;;121.93;;
22015;SDS011;11172;51.698;-0.292;2022-10-16T14:54:49;137.15;;;124.53;;
22015;SDS011;11172;51.698;-0.292;2022-10-16T14:57:21;147.48;;;133.43;;
22015;SDS011;11172;51.698;-0.292;2022-10-16T15:02:25;142.55;;;129.05;;
22015;SDS011;11172;51.698;-0.292;2022-10-16T15:04:53;152.95;;;139.25;;
22015;SDS011;11172;51.698;-0.292;2022-10-16T15:07:19;150.95;;;136.88;;
22015;SDS011;11172;51.698;-0.292;2022-10-16T15:09:56;146.52;;;133.10;;
22015;SDS011;11172;51.698;-0.292;2022-10-16T15:12:24;156.50;;;141.93;;
22015;SDS011;11172;51.698;-0.292;2022-10-16T15:14:50;148.30;;;134.60;;
22015;SDS011;11172;51.698;-0.292;2022-10-16T15:17:17;146.27;;;133.13;;
22015;SDS011;11172;51.698;-0.292;2022-10-16T15:19:43;156.70;;;142.82;;
22015;SDS011;11172;51.698;-0.292;2022-10-16T15:22:10;157.18;;;142.77;;
22015;SDS011;11172;51.698;-0.292;2022-10-16T15:24:37;162.27;;;147.27;;
22015;SDS011;11172;51.698;-0.292;2022-10-16T15:27:03;152.57;;;138.18;;
22015;SDS011;11172;51.698;-0.292;2022-10-16T15:29:29;165.40;;;148.77;;
22015;SDS011;11172;51.698;-0.292;2022-10-16T15:31:55;158.50;;;143.85;;
22015;SDS011;11172;51.698;-0.292;2022-10-16T15:34:21;159.18;;;145.43;;
22015;SDS011;11172;51.698;-0.292;2022-10-16T15:36:47;157.60;;;143.32;;
22015;SDS011;11172;51.698;-0.292;2022-10-16T15:39:15;157.32;;;142.82;;
22015;SDS011;11172;51.698;-0.292;2022-10-16T15:41:41;165.75;;;150.60;;
22015;SDS011;11172;51.698;-0.292;2022-10-16T15:44:08;184.90;;;153.35;;
22015;SDS011;11172;51.698;-0.292;2022-10-16T15:46:35;166.85;;;151.65;;
22015;SDS011;11172;51.698;-0.292;2022-10-16T15:51:31;172.23;;;156.55;;
22015;SDS011;11172;51.698;-0.292;2022-10-16T15:56:28;170.68;;;154.73;;
22015;SDS011;11172;51.698;-0.292;2022-10-16T16:01:31;176.43;;;160.48;;
22015;SDS011;11172;51.698;-0.292;2022-10-16T16:04:03;179.88;;;163.43;;
22015;SDS011;11172;51.698;-0.292;2022-10-16T16:06:31;147.93;;;136.07;;
22015;SDS011;11172;51.698;-0.292;2022-10-16T16:08:57;179.55;;;163.25;;
22015;SDS011;11172;51.698;-0.292;2022-10-16T16:11:24;183.95;;;166.38;;
22015;SDS011;11172;51.698;-0.292;2022-10-16T16:13:50;173.63;;;157.70;;
22015;SDS011;11172;51.698;-0.292;2022-10-16T16:16:20;183.70;;;165.85;;
22015;SDS011;11172;51.698;-0.292;2022-10-16T16:18:52;183.02;;;165.48;;
22015;SDS011;11172;51.698;-0.292;2022-10-16T16:27:26;196.20;;;179.52;;
22015;SDS011;11172;51.698;-0.292;2022-10-16T16:29:54;189.20;;;171.80;;